sensor_id;sensor_type;location;lat;lon;timestamp;P1;durP1;ratioP1;P2;durP2;ratioP2
60696;SDS011;46536;54.376;19.858;2022-12-18T00:01:33;1.40;;;1.30;;
60696;SDS011;46536;54.376;19.858;2022-12-18T00:04:05;1.40;;;1.30;;
60696;SDS011;46536;54.376;19.858;2022-12-18T00:06:36;1.80;;;1.50;;
60696;SDS011;46536;54.376;19.858;2022-12-18T00:09:05;1.70;;;1.30;;
60696;SDS011;46536;54.376;19.858;2022-12-18T00:11:34;1.50;;;1.30;;
60696;SDS011;46536;54.376;19.858;2022-12-18T00:14:03;1.40;;;1.10;;
60696;SDS011;46536;54.376;19.858;2022-12-18T00:16:32;2.00;;;1.40;;
60696;SDS011;46536;54.376;19.858;2022-12-18T00:19:04;0.90;;;0.90;;
60696;SDS011;46536;54.376;19.858;2022-12-18T00:21:33;1.00;;;1.00;;
60696;SDS011;46536;54.376;19.858;2022-12-18T00:24:03;1.40;;;1.30;;
60696;SDS011;46536;54.376;19.858;2022-12-18T00:26:32;1.20;;;0.80;;
60696;SDS011;46536;54.376;19.858;2022-12-18T00:29:06;1.20;;;1.10;;
60696;SDS011;46536;54.376;19.858;2022-12-18T00:31:43;3.00;;;1.70;;
60696;SDS011;46536;54.376;19.858;2022-12-18T00:34:12;1.80;;;1.50;;
60696;SDS011;46536;54.376;19.858;2022-12-18T00:36:41;2.50;;;1.90;;
60696;SDS011;46536;54.376;19.858;2022-12-18T00:39:12;2.00;;;1.70;;
60696;SDS011;46536;54.376;19.858;2022-12-18T00:41:44;1.20;;;1.00;;
60696;SDS011;46536;54.376;19.858;2022-12-18T00:44:32;1.60;;;1.40;;
60696;SDS011;46536;54.376;19.858;2022-12-18T00:47:00;2.00;;;1.50;;
60696;SDS011;46536;54.376;19.858;2022-12-18T00:49:29;1.30;;;1.20;;
60696;SDS011;46536;54.376;19.858;2022-12-18T00:51:58;2.60;;;2.00;;
60696;SDS011;46536;54.376;19.858;2022-12-18T00:54:27;1.50;;;1.20;;
60696;SDS011;46536;54.376;19.858;2022-12-18T00:56:56;2.40;;;1.30;;
60696;SDS011;46536;54.376;19.858;2022-12-18T00:59:25;3.40;;;1.70;;
60696;SDS011;46536;54.376;19.858;2022-12-18T01:01:53;1.40;;;1.30;;
60696;SDS011;46536;54.376;19.858;2022-12-18T01:04:22;2.30;;;1.70;;
60696;SDS011;46536;54.376;19.858;2022-12-18T01:06:51;3.40;;;1.40;;
60696;SDS011;46536;54.376;19.858;2022-12-18T01:09:20;1.70;;;1.50;;
60696;SDS011;46536;54.376;19.858;2022-12-18T01:11:49;1.40;;;1.30;;
60696;SDS011;46536;54.376;19.858;2022-12-18T01:14:18;2.00;;;1.30;;
60696;SDS011;46536;54.376;19.858;2022-12-18T01:16:47;1.60;;;1.10;;
60696;SDS011;46536;54.376;19.858;2022-12-18T01:19:16;1.60;;;1.30;;
60696;SDS011;46536;54.376;19.858;2022-12-18T01:21:47;0.90;;;0.90;;
60696;SDS011;46536;54.376;19.858;2022-12-18T01:24:16;1.00;;;0.90;;
60696;SDS011;46536;54.376;19.858;2022-12-18T01:26:45;1.40;;;1.30;;
60696;SDS011;46536;54.376;19.858;2022-12-18T01:29:14;1.10;;;1.00;;
60696;SDS011;46536;54.376;19.858;2022-12-18T01:31:43;1.00;;;0.90;;
60696;SDS011;46536;54.376;19.858;2022-12-18T01:34:12;1.50;;;1.40;;
60696;SDS011;46536;54.376;19.858;2022-12-18T01:36:42;1.80;;;1.50;;
60696;SDS011;46536;54.376;19.858;2022-12-18T01:39:12;0.80;;;0.80;;
60696;SDS011;46536;54.376;19.858;2022-12-18T01:41:42;1.70;;;1.10;;
60696;SDS011;46536;54.376;19.858;2022-12-18T01:49:53;1.50;;;1.40;;
60696;SDS011;46536;54.376;19.858;2022-12-18T01:52:24;2.60;;;1.30;;
60696;SDS011;46536;54.376;19.858;2022-12-18T01:54:56;2.00;;;1.60;;
60696;SDS011;46536;54.376;19.858;2022-12-18T01:57:26;1.00;;;1.00;;
60696;SDS011;46536;54.376;19.858;2022-12-18T01:59:59;0.90;;;0.90;;
60696;SDS011;46536;54.376;19.858;2022-12-18T02:02:40;1.20;;;1.10;;
60696;SDS011;46536;54.376;19.858;2022-12-18T02:05:11;2.40;;;1.40;;
60696;SDS011;46536;54.376;19.858;2022-12-18T02:10:22;1.80;;;1.10;;
60696;SDS011;46536;54.376;19.858;2022-12-18T02:13:20;1.60;;;1.40;;
60696;SDS011;46536;54.376;19.858;2022-12-18T02:18:50;2.60;;;1.40;;
60696;SDS011;46536;54.376;19.858;2022-12-18T02:21:40;1.30;;;1.20;;
60696;SDS011;46536;54.376;19.858;2022-12-18T02:24:37;2.60;;;1.30;;
60696;SDS011;46536;54.376;19.858;2022-12-18T02:27:15;1.70;;;1.40;;
60696;SDS011;46536;54.376;19.858;2022-12-18T02:29:52;1.30;;;1.20;;
60696;SDS011;46536;54.376;19.858;2022-12-18T02:32:30;2.20;;;1.40;;
60696;SDS011;46536;54.376;19.858;2022-12-18T02:35:03;1.70;;;1.40;;
60696;SDS011;46536;54.376;19.858;2022-12-18T02:40:06;1.30;;;1.20;;
60696;SDS011;46536;54.376;19.858;2022-12-18T02:42:37;1.70;;;1.50;;
60696;SDS011;46536;54.376;19.858;2022-12-18T02:45:07;1.90;;;1.40;;
60696;SDS011;46536;54.376;19.858;2022-12-18T02:47:38;1.40;;;0.90;;
60696;SDS011;46536;54.376;19.858;2022-12-18T02:50:26;1.80;;;1.60;;
60696;SDS011;46536;54.376;19.858;2022-12-18T02:56:10;1.70;;;1.30;;
60696;SDS011;46536;54.376;19.858;2022-12-18T03:01:52;1.80;;;1.40;;
60696;SDS011;46536;54.376;19.858;2022-12-18T03:04:39;1.40;;;1.30;;
60696;SDS011;46536;54.376;19.858;2022-12-18T03:07:34;2.40;;;1.60;;
60696;SDS011;46536;54.376;19.858;2022-12-18T03:10:09;1.40;;;1.30;;
60696;SDS011;46536;54.376;19.858;2022-12-18T03:12:45;3.10;;;1.30;;
60696;SDS011;46536;54.376;19.858;2022-12-18T03:15:25;3.30;;;1.50;;
60696;SDS011;46536;54.376;19.858;2022-12-18T03:18:09;1.70;;;1.40;;
60696;SDS011;46536;54.376;19.858;2022-12-18T03:20:41;1.40;;;1.30;;
60696;SDS011;46536;54.376;19.858;2022-12-18T03:23:17;1.70;;;1.40;;
60696;SDS011;46536;54.376;19.858;2022-12-18T03:25:54;2.10;;;1.60;;
60696;SDS011;46536;54.376;19.858;2022-12-18T03:28:37;0.90;;;0.90;;
60696;SDS011;46536;54.376;19.858;2022-12-18T03:31:11;1.50;;;1.40;;
60696;SDS011;46536;54.376;19.858;2022-12-18T03:33:46;1.20;;;1.00;;
60696;SDS011;46536;54.376;19.858;2022-12-18T03:36:21;1.70;;;1.60;;
60696;SDS011;46536;54.376;19.858;2022-12-18T03:38:51;2.00;;;1.50;;
60696;SDS011;46536;54.376;19.858;2022-12-18T03:44:29;0.90;;;0.90;;
60696;SDS011;46536;54.376;19.858;2022-12-18T03:49:59;2.30;;;1.70;;
60696;SDS011;46536;54.376;19.858;2022-12-18T03:55:48;2.00;;;1.30;;
60696;SDS011;46536;54.376;19.858;2022-12-18T03:58:20;1.10;;;1.00;;
60696;SDS011;46536;54.376;19.858;2022-12-18T04:01:10;2.50;;;1.50;;
60696;SDS011;46536;54.376;19.858;2022-12-18T04:03:43;3.80;;;1.90;;
60696;SDS011;46536;54.376;19.858;2022-12-18T04:06:15;1.70;;;1.40;;
60696;SDS011;46536;54.376;19.858;2022-12-18T04:08:46;3.00;;;1.80;;
60696;SDS011;46536;54.376;19.858;2022-12-18T04:11:17;1.50;;;1.40;;
60696;SDS011;46536;54.376;19.858;2022-12-18T04:13:47;1.70;;;1.50;;
60696;SDS011;46536;54.376;19.858;2022-12-18T04:16:22;2.20;;;2.00;;
60696;SDS011;46536;54.376;19.858;2022-12-18T04:18:54;2.50;;;1.70;;
60696;SDS011;46536;54.376;19.858;2022-12-18T04:21:24;1.60;;;1.30;;
60696;SDS011;46536;54.376;19.858;2022-12-18T04:23:53;1.80;;;1.40;;
60696;SDS011;46536;54.376;19.858;2022-12-18T04:26:22;1.20;;;1.10;;
60696;SDS011;46536;54.376;19.858;2022-12-18T04:29:13;1.40;;;1.30;;
60696;SDS011;46536;54.376;19.858;2022-12-18T04:31:42;3.70;;;1.60;;
60696;SDS011;46536;54.376;19.858;2022-12-18T04:34:11;1.90;;;1.60;;
60696;SDS011;46536;54.376;19.858;2022-12-18T04:36:45;1.50;;;1.40;;
60696;SDS011;46536;54.376;19.858;2022-12-18T04:39:17;2.30;;;1.80;;
60696;SDS011;46536;54.376;19.858;2022-12-18T04:44:15;2.90;;;1.50;;
60696;SDS011;46536;54.376;19.858;2022-12-18T04:46:44;1.80;;;1.60;;
60696;SDS011;46536;54.376;19.858;2022-12-18T04:49:12;1.90;;;1.70;;
60696;SDS011;46536;54.376;19.858;2022-12-18T04:51:41;2.80;;;1.60;;
60696;SDS011;46536;54.376;19.858;2022-12-18T04:54:10;2.60;;;2.00;;
60696;SDS011;46536;54.376;19.858;2022-12-18T04:56:38;1.60;;;1.50;;
60696;SDS011;46536;54.376;19.858;2022-12-18T04:59:07;1.40;;;1.30;;
60696;SDS011;46536;54.376;19.858;2022-12-18T05:01:36;4.30;;;1.40;;
60696;SDS011;46536;54.376;19.858;2022-12-18T05:04:04;2.20;;;1.70;;
60696;SDS011;46536;54.376;19.858;2022-12-18T05:06:33;2.10;;;1.30;;
60696;SDS011;46536;54.376;19.858;2022-12-18T05:09:02;3.10;;;2.00;;
60696;SDS011;46536;54.376;19.858;2022-12-18T05:11:30;3.00;;;1.60;;
60696;SDS011;46536;54.376;19.858;2022-12-18T05:13:59;2.20;;;1.50;;
60696;SDS011;46536;54.376;19.858;2022-12-18T05:16:27;3.10;;;1.80;;
60696;SDS011;46536;54.376;19.858;2022-12-18T05:18:56;2.30;;;2.00;;
60696;SDS011;46536;54.376;19.858;2022-12-18T05:21:25;1.50;;;1.40;;
60696;SDS011;46536;54.376;19.858;2022-12-18T05:23:54;2.00;;;1.80;;
60696;SDS011;46536;54.376;19.858;2022-12-18T05:26:23;2.10;;;1.50;;
60696;SDS011;46536;54.376;19.858;2022-12-18T05:28:51;3.40;;;2.00;;
60696;SDS011;46536;54.376;19.858;2022-12-18T05:31:20;3.60;;;1.60;;
60696;SDS011;46536;54.376;19.858;2022-12-18T05:33:48;4.30;;;2.00;;
60696;SDS011;46536;54.376;19.858;2022-12-18T05:36:17;4.00;;;2.20;;
60696;SDS011;46536;54.376;19.858;2022-12-18T05:38:45;2.70;;;1.50;;
60696;SDS011;46536;54.376;19.858;2022-12-18T05:41:14;4.90;;;2.00;;
60696;SDS011;46536;54.376;19.858;2022-12-18T05:43:42;5.20;;;2.40;;
60696;SDS011;46536;54.376;19.858;2022-12-18T05:46:12;6.40;;;1.90;;
60696;SDS011;46536;54.376;19.858;2022-12-18T05:48:46;3.70;;;2.40;;
60696;SDS011;46536;54.376;19.858;2022-12-18T05:51:16;2.90;;;2.00;;
60696;SDS011;46536;54.376;19.858;2022-12-18T05:53:46;3.70;;;2.70;;
60696;SDS011;46536;54.376;19.858;2022-12-18T05:56:17;5.20;;;2.70;;
60696;SDS011;46536;54.376;19.858;2022-12-18T06:01:20;2.70;;;2.10;;
60696;SDS011;46536;54.376;19.858;2022-12-18T06:03:52;4.10;;;2.20;;
60696;SDS011;46536;54.376;19.858;2022-12-18T06:06:25;3.80;;;1.90;;
60696;SDS011;46536;54.376;19.858;2022-12-18T06:08:55;2.20;;;1.70;;
60696;SDS011;46536;54.376;19.858;2022-12-18T06:11:25;4.00;;;2.10;;
60696;SDS011;46536;54.376;19.858;2022-12-18T06:13:55;3.40;;;2.30;;
60696;SDS011;46536;54.376;19.858;2022-12-18T06:16:29;2.70;;;1.90;;
60696;SDS011;46536;54.376;19.858;2022-12-18T06:18:59;4.40;;;2.50;;
60696;SDS011;46536;54.376;19.858;2022-12-18T06:21:29;4.20;;;2.40;;
60696;SDS011;46536;54.376;19.858;2022-12-18T06:23:59;3.80;;;2.10;;
60696;SDS011;46536;54.376;19.858;2022-12-18T06:26:28;2.70;;;2.00;;
60696;SDS011;46536;54.376;19.858;2022-12-18T06:28:57;3.70;;;2.30;;
60696;SDS011;46536;54.376;19.858;2022-12-18T06:31:25;3.20;;;2.40;;
60696;SDS011;46536;54.376;19.858;2022-12-18T06:33:54;4.40;;;2.30;;
60696;SDS011;46536;54.376;19.858;2022-12-18T06:36:23;4.90;;;2.60;;
60696;SDS011;46536;54.376;19.858;2022-12-18T06:38:51;3.50;;;2.60;;
60696;SDS011;46536;54.376;19.858;2022-12-18T06:41:20;2.70;;;2.30;;
60696;SDS011;46536;54.376;19.858;2022-12-18T06:43:49;3.50;;;2.60;;
60696;SDS011;46536;54.376;19.858;2022-12-18T06:46:21;3.50;;;2.80;;
60696;SDS011;46536;54.376;19.858;2022-12-18T06:48:50;4.30;;;2.20;;
60696;SDS011;46536;54.376;19.858;2022-12-18T06:51:23;4.10;;;2.60;;
60696;SDS011;46536;54.376;19.858;2022-12-18T06:53:52;3.30;;;2.50;;
60696;SDS011;46536;54.376;19.858;2022-12-18T06:56:21;5.20;;;2.30;;
60696;SDS011;46536;54.376;19.858;2022-12-18T06:58:50;4.40;;;2.50;;
60696;SDS011;46536;54.376;19.858;2022-12-18T07:01:19;7.50;;;2.80;;
60696;SDS011;46536;54.376;19.858;2022-12-18T07:03:51;5.60;;;2.90;;
60696;SDS011;46536;54.376;19.858;2022-12-18T07:06:24;3.40;;;2.50;;
60696;SDS011;46536;54.376;19.858;2022-12-18T07:08:53;3.90;;;2.90;;
60696;SDS011;46536;54.376;19.858;2022-12-18T07:11:22;5.60;;;2.80;;
60696;SDS011;46536;54.376;19.858;2022-12-18T07:13:52;3.70;;;2.40;;
60696;SDS011;46536;54.376;19.858;2022-12-18T07:16:21;4.00;;;2.40;;
60696;SDS011;46536;54.376;19.858;2022-12-18T07:18:54;2.20;;;1.90;;
60696;SDS011;46536;54.376;19.858;2022-12-18T07:21:23;4.20;;;2.80;;
60696;SDS011;46536;54.376;19.858;2022-12-18T07:23:52;4.20;;;2.90;;
60696;SDS011;46536;54.376;19.858;2022-12-18T07:26:21;2.10;;;1.70;;
60696;SDS011;46536;54.376;19.858;2022-12-18T07:28:50;3.20;;;2.40;;
60696;SDS011;46536;54.376;19.858;2022-12-18T07:31:23;3.00;;;2.10;;
60696;SDS011;46536;54.376;19.858;2022-12-18T07:33:52;2.90;;;2.10;;
60696;SDS011;46536;54.376;19.858;2022-12-18T07:36:23;3.40;;;2.50;;
60696;SDS011;46536;54.376;19.858;2022-12-18T07:38:52;6.60;;;2.70;;
60696;SDS011;46536;54.376;19.858;2022-12-18T07:41:21;3.50;;;2.30;;
60696;SDS011;46536;54.376;19.858;2022-12-18T07:43:50;5.90;;;2.70;;
60696;SDS011;46536;54.376;19.858;2022-12-18T07:46:19;4.90;;;3.00;;
60696;SDS011;46536;54.376;19.858;2022-12-18T07:48:48;4.90;;;2.40;;
60696;SDS011;46536;54.376;19.858;2022-12-18T07:51:17;4.10;;;2.80;;
60696;SDS011;46536;54.376;19.858;2022-12-18T07:53:46;4.90;;;2.80;;
60696;SDS011;46536;54.376;19.858;2022-12-18T07:56:19;6.80;;;2.80;;
60696;SDS011;46536;54.376;19.858;2022-12-18T07:58:55;5.60;;;3.20;;
60696;SDS011;46536;54.376;19.858;2022-12-18T08:01:24;2.90;;;2.10;;
60696;SDS011;46536;54.376;19.858;2022-12-18T08:03:53;2.70;;;1.90;;
60696;SDS011;46536;54.376;19.858;2022-12-18T08:06:22;3.00;;;2.60;;
60696;SDS011;46536;54.376;19.858;2022-12-18T08:08:52;4.20;;;2.40;;
60696;SDS011;46536;54.376;19.858;2022-12-18T08:11:22;4.10;;;2.60;;
60696;SDS011;46536;54.376;19.858;2022-12-18T08:13:52;4.00;;;2.50;;
60696;SDS011;46536;54.376;19.858;2022-12-18T08:16:21;5.00;;;2.70;;
60696;SDS011;46536;54.376;19.858;2022-12-18T08:18:51;4.80;;;2.90;;
60696;SDS011;46536;54.376;19.858;2022-12-18T08:21:23;4.70;;;2.50;;
60696;SDS011;46536;54.376;19.858;2022-12-18T08:23:54;3.50;;;2.30;;
60696;SDS011;46536;54.376;19.858;2022-12-18T08:26:24;3.90;;;2.40;;
60696;SDS011;46536;54.376;19.858;2022-12-18T08:28:55;3.70;;;2.80;;
60696;SDS011;46536;54.376;19.858;2022-12-18T08:31:25;4.30;;;2.90;;
60696;SDS011;46536;54.376;19.858;2022-12-18T08:33:56;5.50;;;2.80;;
60696;SDS011;46536;54.376;19.858;2022-12-18T08:36:25;5.60;;;3.00;;
60696;SDS011;46536;54.376;19.858;2022-12-18T08:38:54;5.30;;;3.10;;
60696;SDS011;46536;54.376;19.858;2022-12-18T08:41:24;5.90;;;3.40;;
60696;SDS011;46536;54.376;19.858;2022-12-18T08:43:53;7.90;;;4.20;;
60696;SDS011;46536;54.376;19.858;2022-12-18T08:46:40;4.80;;;2.50;;
60696;SDS011;46536;54.376;19.858;2022-12-18T08:49:10;5.50;;;3.30;;
60696;SDS011;46536;54.376;19.858;2022-12-18T08:51:39;4.30;;;2.80;;
60696;SDS011;46536;54.376;19.858;2022-12-18T08:54:11;3.20;;;2.50;;
60696;SDS011;46536;54.376;19.858;2022-12-18T08:56:41;5.30;;;2.80;;
60696;SDS011;46536;54.376;19.858;2022-12-18T08:59:10;6.40;;;2.80;;
60696;SDS011;46536;54.376;19.858;2022-12-18T09:01:46;3.80;;;3.30;;
60696;SDS011;46536;54.376;19.858;2022-12-18T09:04:17;4.50;;;2.70;;
60696;SDS011;46536;54.376;19.858;2022-12-18T09:06:45;6.40;;;2.60;;
60696;SDS011;46536;54.376;19.858;2022-12-18T09:09:15;7.90;;;4.20;;
60696;SDS011;46536;54.376;19.858;2022-12-18T09:11:44;3.90;;;2.50;;
60696;SDS011;46536;54.376;19.858;2022-12-18T09:14:15;4.10;;;3.30;;
60696;SDS011;46536;54.376;19.858;2022-12-18T09:16:44;3.40;;;1.90;;
60696;SDS011;46536;54.376;19.858;2022-12-18T09:19:13;3.20;;;2.40;;
60696;SDS011;46536;54.376;19.858;2022-12-18T09:21:44;4.30;;;3.00;;
60696;SDS011;46536;54.376;19.858;2022-12-18T09:24:15;5.50;;;2.40;;
60696;SDS011;46536;54.376;19.858;2022-12-18T09:26:44;5.50;;;3.30;;
60696;SDS011;46536;54.376;19.858;2022-12-18T09:29:15;6.40;;;3.20;;
60696;SDS011;46536;54.376;19.858;2022-12-18T09:31:46;9.60;;;4.00;;
60696;SDS011;46536;54.376;19.858;2022-12-18T09:34:15;4.10;;;2.60;;
60696;SDS011;46536;54.376;19.858;2022-12-18T09:36:44;4.80;;;2.50;;
60696;SDS011;46536;54.376;19.858;2022-12-18T09:39:14;6.30;;;3.70;;
60696;SDS011;46536;54.376;19.858;2022-12-18T09:41:47;5.60;;;3.00;;
60696;SDS011;46536;54.376;19.858;2022-12-18T09:47:13;4.80;;;3.50;;
60696;SDS011;46536;54.376;19.858;2022-12-18T09:49:50;2.80;;;2.10;;
60696;SDS011;46536;54.376;19.858;2022-12-18T09:55:04;3.60;;;2.50;;
60696;SDS011;46536;54.376;19.858;2022-12-18T09:57:35;3.00;;;2.10;;
60696;SDS011;46536;54.376;19.858;2022-12-18T10:00:16;3.20;;;2.60;;
60696;SDS011;46536;54.376;19.858;2022-12-18T10:02:50;2.60;;;1.90;;
60696;SDS011;46536;54.376;19.858;2022-12-18T10:10:32;2.80;;;2.40;;
60696;SDS011;46536;54.376;19.858;2022-12-18T10:13:33;3.80;;;2.90;;
60696;SDS011;46536;54.376;19.858;2022-12-18T10:21:32;2.70;;;2.30;;
60696;SDS011;46536;54.376;19.858;2022-12-18T10:24:23;5.60;;;2.90;;
60696;SDS011;46536;54.376;19.858;2022-12-18T10:26:55;4.20;;;2.40;;
60696;SDS011;46536;54.376;19.858;2022-12-18T10:29:40;9.70;;;4.90;;
60696;SDS011;46536;54.376;19.858;2022-12-18T10:32:21;4.50;;;3.10;;
60696;SDS011;46536;54.376;19.858;2022-12-18T10:34:55;4.70;;;3.30;;
60696;SDS011;46536;54.376;19.858;2022-12-18T10:37:31;6.20;;;2.60;;
60696;SDS011;46536;54.376;19.858;2022-12-18T10:40:10;2.60;;;2.40;;
60696;SDS011;46536;54.376;19.858;2022-12-18T10:43:05;4.00;;;2.70;;
60696;SDS011;46536;54.376;19.858;2022-12-18T10:45:41;2.70;;;2.40;;
60696;SDS011;46536;54.376;19.858;2022-12-18T10:48:18;3.70;;;2.30;;
60696;SDS011;46536;54.376;19.858;2022-12-18T10:50:51;4.80;;;2.90;;
60696;SDS011;46536;54.376;19.858;2022-12-18T10:53:44;4.60;;;2.20;;
60696;SDS011;46536;54.376;19.858;2022-12-18T10:56:33;5.10;;;3.30;;
60696;SDS011;46536;54.376;19.858;2022-12-18T10:59:11;4.00;;;2.80;;
60696;SDS011;46536;54.376;19.858;2022-12-18T11:01:54;4.70;;;3.10;;
60696;SDS011;46536;54.376;19.858;2022-12-18T11:04:30;2.90;;;2.60;;
60696;SDS011;46536;54.376;19.858;2022-12-18T11:07:06;6.40;;;2.40;;
60696;SDS011;46536;54.376;19.858;2022-12-18T11:09:41;5.60;;;3.00;;
60696;SDS011;46536;54.376;19.858;2022-12-18T11:12:18;5.70;;;2.80;;
60696;SDS011;46536;54.376;19.858;2022-12-18T11:14:54;4.40;;;2.90;;
60696;SDS011;46536;54.376;19.858;2022-12-18T11:17:29;3.80;;;2.00;;
60696;SDS011;46536;54.376;19.858;2022-12-18T11:20:07;2.50;;;2.30;;
60696;SDS011;46536;54.376;19.858;2022-12-18T11:22:58;3.50;;;2.20;;
60696;SDS011;46536;54.376;19.858;2022-12-18T11:25:36;3.70;;;2.70;;
60696;SDS011;46536;54.376;19.858;2022-12-18T11:29:08;3.90;;;2.50;;
60696;SDS011;46536;54.376;19.858;2022-12-18T11:31:19;4.80;;;2.50;;
60696;SDS011;46536;54.376;19.858;2022-12-18T11:34:17;3.70;;;2.50;;
60696;SDS011;46536;54.376;19.858;2022-12-18T11:36:59;6.00;;;3.30;;
60696;SDS011;46536;54.376;19.858;2022-12-18T11:39:37;1.80;;;1.70;;
60696;SDS011;46536;54.376;19.858;2022-12-18T11:42:20;5.20;;;3.10;;
60696;SDS011;46536;54.376;19.858;2022-12-18T11:48:29;4.40;;;2.70;;
60696;SDS011;46536;54.376;19.858;2022-12-18T11:59:30;3.50;;;2.70;;
60696;SDS011;46536;54.376;19.858;2022-12-18T12:05:27;4.20;;;2.10;;
60696;SDS011;46536;54.376;19.858;2022-12-18T12:14:12;2.60;;;2.30;;
60696;SDS011;46536;54.376;19.858;2022-12-18T12:16:51;6.50;;;2.90;;
60696;SDS011;46536;54.376;19.858;2022-12-18T12:28:19;2.90;;;2.40;;
60696;SDS011;46536;54.376;19.858;2022-12-18T12:33:41;2.80;;;2.20;;
60696;SDS011;46536;54.376;19.858;2022-12-18T12:39:40;3.70;;;2.40;;
60696;SDS011;46536;54.376;19.858;2022-12-18T12:42:15;2.30;;;1.80;;
60696;SDS011;46536;54.376;19.858;2022-12-18T12:45:07;2.60;;;1.90;;
60696;SDS011;46536;54.376;19.858;2022-12-18T12:47:46;4.70;;;3.00;;
60696;SDS011;46536;54.376;19.858;2022-12-18T12:50:18;4.10;;;2.50;;
60696;SDS011;46536;54.376;19.858;2022-12-18T12:52:53;5.60;;;3.20;;
60696;SDS011;46536;54.376;19.858;2022-12-18T12:55:24;3.80;;;2.90;;
60696;SDS011;46536;54.376;19.858;2022-12-18T13:00:28;3.30;;;2.40;;
60696;SDS011;46536;54.376;19.858;2022-12-18T13:05:58;4.20;;;2.50;;
60696;SDS011;46536;54.376;19.858;2022-12-18T13:08:34;4.20;;;2.80;;
60696;SDS011;46536;54.376;19.858;2022-12-18T13:11:43;3.40;;;2.70;;
60696;SDS011;46536;54.376;19.858;2022-12-18T13:14:35;3.00;;;2.30;;
60696;SDS011;46536;54.376;19.858;2022-12-18T13:19:51;3.80;;;2.70;;
60696;SDS011;46536;54.376;19.858;2022-12-18T13:22:37;5.00;;;2.50;;
60696;SDS011;46536;54.376;19.858;2022-12-18T13:30:41;3.40;;;2.80;;
60696;SDS011;46536;54.376;19.858;2022-12-18T13:43:33;3.30;;;2.60;;
60696;SDS011;46536;54.376;19.858;2022-12-18T13:46:42;2.90;;;2.30;;
60696;SDS011;46536;54.376;19.858;2022-12-18T13:51:43;4.60;;;2.80;;
60696;SDS011;46536;54.376;19.858;2022-12-18T13:54:28;3.20;;;2.50;;
60696;SDS011;46536;54.376;19.858;2022-12-18T13:57:03;4.50;;;2.10;;
60696;SDS011;46536;54.376;19.858;2022-12-18T13:59:38;5.00;;;3.20;;
60696;SDS011;46536;54.376;19.858;2022-12-18T14:04:41;4.30;;;2.30;;
60696;SDS011;46536;54.376;19.858;2022-12-18T14:20:51;5.00;;;3.30;;
60696;SDS011;46536;54.376;19.858;2022-12-18T14:28:59;3.90;;;2.70;;
60696;SDS011;46536;54.376;19.858;2022-12-18T14:31:46;5.10;;;2.80;;
60696;SDS011;46536;54.376;19.858;2022-12-18T14:34:47;3.60;;;2.60;;
60696;SDS011;46536;54.376;19.858;2022-12-18T14:37:20;3.90;;;2.80;;
60696;SDS011;46536;54.376;19.858;2022-12-18T14:40:00;4.00;;;2.90;;
60696;SDS011;46536;54.376;19.858;2022-12-18T14:42:38;5.10;;;2.60;;
60696;SDS011;46536;54.376;19.858;2022-12-18T14:48:21;3.40;;;2.30;;
60696;SDS011;46536;54.376;19.858;2022-12-18T14:51:02;4.90;;;3.00;;
60696;SDS011;46536;54.376;19.858;2022-12-18T14:53:39;9.10;;;2.90;;
60696;SDS011;46536;54.376;19.858;2022-12-18T14:56:20;3.70;;;2.70;;
60696;SDS011;46536;54.376;19.858;2022-12-18T14:58:55;4.70;;;2.80;;
60696;SDS011;46536;54.376;19.858;2022-12-18T15:01:27;2.70;;;2.50;;
60696;SDS011;46536;54.376;19.858;2022-12-18T15:04:00;6.60;;;3.60;;
60696;SDS011;46536;54.376;19.858;2022-12-18T15:06:35;3.80;;;2.90;;
60696;SDS011;46536;54.376;19.858;2022-12-18T15:09:21;5.30;;;3.50;;
60696;SDS011;46536;54.376;19.858;2022-12-18T15:11:57;3.80;;;3.10;;
60696;SDS011;46536;54.376;19.858;2022-12-18T15:14:32;6.10;;;2.50;;
60696;SDS011;46536;54.376;19.858;2022-12-18T15:17:19;9.10;;;3.00;;
60696;SDS011;46536;54.376;19.858;2022-12-18T15:19:52;4.50;;;3.60;;
60696;SDS011;46536;54.376;19.858;2022-12-18T15:22:32;7.70;;;3.20;;
60696;SDS011;46536;54.376;19.858;2022-12-18T15:25:03;2.70;;;2.30;;
60696;SDS011;46536;54.376;19.858;2022-12-18T15:28:02;4.00;;;3.30;;
60696;SDS011;46536;54.376;19.858;2022-12-18T15:33:31;4.70;;;3.10;;
60696;SDS011;46536;54.376;19.858;2022-12-18T15:36:03;6.30;;;3.20;;
60696;SDS011;46536;54.376;19.858;2022-12-18T15:38:36;4.70;;;2.80;;
60696;SDS011;46536;54.376;19.858;2022-12-18T15:41:06;7.80;;;3.40;;
60696;SDS011;46536;54.376;19.858;2022-12-18T15:43:41;4.60;;;3.00;;
60696;SDS011;46536;54.376;19.858;2022-12-18T15:46:12;3.80;;;2.80;;
60696;SDS011;46536;54.376;19.858;2022-12-18T15:48:47;4.00;;;2.50;;
60696;SDS011;46536;54.376;19.858;2022-12-18T15:51:19;8.20;;;4.10;;
60696;SDS011;46536;54.376;19.858;2022-12-18T15:53:52;4.30;;;3.00;;
60696;SDS011;46536;54.376;19.858;2022-12-18T15:56:27;11.10;;;3.10;;
60696;SDS011;46536;54.376;19.858;2022-12-18T15:59:16;4.40;;;2.90;;
60696;SDS011;46536;54.376;19.858;2022-12-18T16:01:47;6.00;;;3.60;;
60696;SDS011;46536;54.376;19.858;2022-12-18T16:04:19;4.40;;;3.20;;
60696;SDS011;46536;54.376;19.858;2022-12-18T16:06:49;2.80;;;2.40;;
60696;SDS011;46536;54.376;19.858;2022-12-18T16:09:40;4.00;;;3.00;;
60696;SDS011;46536;54.376;19.858;2022-12-18T16:12:17;4.60;;;3.10;;
60696;SDS011;46536;54.376;19.858;2022-12-18T16:14:49;5.00;;;3.40;;
60696;SDS011;46536;54.376;19.858;2022-12-18T16:17:18;6.00;;;3.50;;
60696;SDS011;46536;54.376;19.858;2022-12-18T16:19:47;5.00;;;3.40;;
60696;SDS011;46536;54.376;19.858;2022-12-18T16:22:23;8.00;;;3.90;;
60696;SDS011;46536;54.376;19.858;2022-12-18T16:24:54;4.20;;;3.00;;
60696;SDS011;46536;54.376;19.858;2022-12-18T16:27:24;5.00;;;3.30;;
60696;SDS011;46536;54.376;19.858;2022-12-18T16:29:53;8.60;;;4.20;;
60696;SDS011;46536;54.376;19.858;2022-12-18T16:32:22;4.40;;;2.90;;
60696;SDS011;46536;54.376;19.858;2022-12-18T16:34:51;4.10;;;2.90;;
60696;SDS011;46536;54.376;19.858;2022-12-18T16:37:20;5.80;;;3.50;;
60696;SDS011;46536;54.376;19.858;2022-12-18T16:39:49;5.00;;;3.60;;
60696;SDS011;46536;54.376;19.858;2022-12-18T16:42:19;5.70;;;3.90;;
60696;SDS011;46536;54.376;19.858;2022-12-18T16:44:48;6.50;;;4.50;;
60696;SDS011;46536;54.376;19.858;2022-12-18T16:47:18;7.10;;;4.10;;
60696;SDS011;46536;54.376;19.858;2022-12-18T16:49:47;9.10;;;3.70;;
60696;SDS011;46536;54.376;19.858;2022-12-18T16:52:19;6.90;;;4.30;;
60696;SDS011;46536;54.376;19.858;2022-12-18T16:54:48;7.40;;;3.90;;
60696;SDS011;46536;54.376;19.858;2022-12-18T16:57:18;4.60;;;3.50;;
60696;SDS011;46536;54.376;19.858;2022-12-18T16:59:52;7.50;;;4.40;;
60696;SDS011;46536;54.376;19.858;2022-12-18T17:02:22;7.40;;;4.30;;
60696;SDS011;46536;54.376;19.858;2022-12-18T17:04:56;6.20;;;3.60;;
60696;SDS011;46536;54.376;19.858;2022-12-18T17:07:26;10.70;;;5.10;;
60696;SDS011;46536;54.376;19.858;2022-12-18T17:09:55;6.70;;;4.50;;
60696;SDS011;46536;54.376;19.858;2022-12-18T17:12:24;10.10;;;4.40;;
60696;SDS011;46536;54.376;19.858;2022-12-18T17:14:54;7.00;;;4.30;;
60696;SDS011;46536;54.376;19.858;2022-12-18T17:17:23;6.20;;;3.70;;
60696;SDS011;46536;54.376;19.858;2022-12-18T17:19:52;4.30;;;3.20;;
60696;SDS011;46536;54.376;19.858;2022-12-18T17:22:21;6.10;;;3.70;;
60696;SDS011;46536;54.376;19.858;2022-12-18T17:24:52;7.40;;;4.50;;
60696;SDS011;46536;54.376;19.858;2022-12-18T17:27:21;8.00;;;4.70;;
60696;SDS011;46536;54.376;19.858;2022-12-18T17:29:50;5.40;;;3.70;;
60696;SDS011;46536;54.376;19.858;2022-12-18T17:32:19;4.80;;;3.60;;